Time;durP1;ratioP1;P1;durP2;ratioP2;P2;SDS_P1;SDS_P2;PMS_P1;PMS_P2;Temp;Humidity;BMP_temperature;BMP_pressure;BME280_temperature;BME280_humidity;BME280_pressure;Samples;Min_cycle;Max_cycle;Signal;HPM_P1;HPM_P2
2022/09/12 00:00:09;;;;;;;5.78;3.85;;;22.00;99.90;;;;;;4179390;28;20215;-72
2022/09/12 00:02:11;;;;;;;4.88;4.38;;;21.90;99.90;;;;;;4178883;28;20220;-72
2022/09/12 00:04:15;;;;;;;5.35;4.63;;;22.00;99.90;;;;;;4178017;28;20273;-72
2022/09/12 00:06:19;;;;;;;4.57;4.18;;;22.00;99.90;;;;;;4177252;28;20220;-72
2022/09/12 00:08:21;;;;;;;4.88;4.38;;;22.00;99.90;;;;;;4178829;28;20236;-72
2022/09/12 00:10:24;;;;;;;4.65;4.25;;;21.90;99.90;;;;;;4178705;28;20243;-72
2022/09/12 00:12:26;;;;;;;5.03;4.53;;;22.00;99.90;;;;;;4179119;28;20277;-72
2022/09/12 00:14:28;;;;;;;4.50;4.10;;;22.00;99.90;;;;;;4179124;28;20215;-72
2022/09/12 00:16:33;;;;;;;5.32;4.82;;;22.00;99.90;;;;;;4178556;28;20219;-72
2022/09/12 00:18:35;;;;;;;4.65;4.25;;;22.00;99.90;;;;;;4179025;28;20664;-72
2022/09/12 00:20:43;;;;;;;4.45;4.05;;;21.90;99.90;;;;;;4175861;28;20266;-73
2022/09/12 00:22:45;;;;;;;4.70;4.30;;;21.90;99.90;;;;;;4178305;28;20215;-72
2022/09/12 00:24:47;;;;;;;4.32;3.80;;;21.90;99.90;;;;;;4177328;28;20672;-73
2022/09/12 00:26:50;;;;;;;4.85;4.45;;;22.00;99.90;;;;;;4178738;28;20228;-72
2022/09/12 00:28:52;;;;;;;4.80;4.40;;;21.90;99.90;;;;;;4178818;28;20224;-73
2022/09/12 00:30:54;;;;;;;4.63;4.22;;;21.90;99.90;;;;;;4178438;28;20325;-73
2022/09/12 00:32:57;;;;;;;4.85;4.43;;;21.90;99.90;;;;;;4178676;28;20292;-72
2022/09/12 00:35:01;;;;;;;4.78;4.38;;;21.90;99.90;;;;;;4178430;28;20219;-72
2022/09/12 00:37:05;;;;;;;4.70;4.30;;;21.90;99.90;;;;;;4178101;28;20289;-72
2022/09/12 00:39:08;;;;;;;5.22;4.72;;;21.90;99.90;;;;;;4177277;28;20273;-72
2022/09/12 00:41:16;;;;;;;4.72;4.32;;;21.90;99.90;;;;;;4177983;28;20224;-72
2022/09/12 00:43:37;;;;;;;5.10;4.45;;;21.90;99.90;;;;;;4175974;28;20211;-72
2022/09/12 00:45:41;;;;;;;4.68;4.25;;;21.90;99.90;;;;;;4177837;28;20212;-72
2022/09/12 00:47:44;;;;;;;5.10;4.57;;;21.90;99.90;;;;;;4179736;28;20281;-72
2022/09/12 00:49:50;;;;;;;4.93;4.13;;;21.90;99.90;;;;;;4179750;28;20223;-72
2022/09/12 00:51:55;;;;;;;5.18;4.50;;;21.90;99.90;;;;;;4179311;28;20243;-72
2022/09/12 00:54:02;;;;;;;4.72;4.18;;;21.90;99.90;;;;;;4179796;28;20652;-72
2022/09/12 00:56:04;;;;;;;4.68;4.25;;;21.90;99.90;;;;;;4176319;28;20273;-72
2022/09/12 00:58:10;;;;;;;4.07;3.78;;;21.90;99.90;;;;;;4179005;28;20742;-72
2022/09/12 01:00:15;;;;;;;4.88;4.47;;;21.90;99.90;;;;;;4178765;28;20246;-72
2022/09/12 01:02:17;;;;;;;4.88;4.38;;;21.90;99.90;;;;;;4178977;28;20265;-72
2022/09/12 01:04:23;;;;;;;4.60;4.15;;;21.90;99.90;;;;;;4179106;28;20273;-72
2022/09/12 01:06:28;;;;;;;4.72;4.20;;;21.90;99.90;;;;;;4179389;28;20620;-72
2022/09/12 01:08:33;;;;;;;5.55;4.07;;;21.90;99.90;;;;;;4179332;28;20224;-72
2022/09/12 01:10:39;;;;;;;4.65;4.18;;;21.90;99.90;;;;;;4179048;28;20313;-73
2022/09/12 01:12:43;;;;;;;4.60;4.20;;;21.90;99.90;;;;;;4169340;28;20220;-72
2022/09/12 01:14:45;;;;;;;4.93;4.53;;;21.90;99.90;;;;;;4179537;28;20354;-72
2022/09/12 01:16:50;;;;;;;4.70;4.25;;;21.90;99.90;;;;;;4179330;28;20653;-72
2022/09/12 01:19:04;;;;;;;5.95;4.43;;;21.90;99.90;;;;;;4179215;28;20223;-72
2022/09/12 01:21:18;;;;;;;5.85;4.05;;;21.90;99.90;;;;;;4178647;28;20211;-72
2022/09/12 01:23:57;;;;;;;5.03;4.53;;;21.90;99.90;;;;;;4179191;28;20215;-72
2022/09/12 01:26:11;;;;;;;4.35;3.67;;;21.90;99.90;;;;;;4166448;28;20270;-72
2022/09/12 01:28:34;;;;;;;5.32;4.35;;;21.90;99.90;;;;;;4178956;28;20219;-72
2022/09/12 01:30:45;;;;;;;5.53;4.35;;;21.90;99.90;;;;;;4177616;28;20219;-72
2022/09/12 01:33:04;;;;;;;4.60;4.20;;;21.90;99.90;;;;;;4179071;28;20281;-72
2022/09/12 01:35:15;;;;;;;5.65;4.15;;;21.80;99.90;;;;;;4178887;28;20223;-72
2022/09/12 01:37:26;;;;;;;4.68;4.18;;;21.90;99.90;;;;;;4179011;28;20224;-72
2022/09/12 01:39:35;;;;;;;4.78;4.38;;;21.80;99.90;;;;;;4179022;28;20264;-72
2022/09/12 01:41:48;;;;;;;4.72;4.10;;;21.90;99.90;;;;;;4178845;28;20287;-72
2022/09/12 01:43:58;;;;;;;4.85;4.35;;;21.90;99.90;;;;;;4166349;28;20207;-72
2022/09/12 01:46:09;;;;;;;4.78;4.28;;;21.90;99.90;;;;;;4176027;28;20805;-73
2022/09/12 01:48:18;;;;;;;5.05;4.60;;;21.90;99.90;;;;;;4177726;28;20223;-73
2022/09/12 01:50:24;;;;;;;4.60;4.07;;;21.80;99.90;;;;;;4178012;28;20278;-72
2022/09/12 01:52:33;;;;;;;4.95;4.40;;;21.90;99.90;;;;;;4177105;28;20761;-72
2022/09/12 01:54:39;;;;;;;5.65;3.97;;;21.90;99.90;;;;;;4177486;28;20618;-72
2022/09/12 01:56:43;;;;;;;4.35;3.97;;;21.80;99.90;;;;;;4175373;28;20818;-73
2022/09/12 01:58:50;;;;;;;4.65;4.25;;;21.80;99.90;;;;;;4174089;28;20270;-72
2022/09/12 02:01:10;;;;;;;5.18;4.32;;;21.80;99.90;;;;;;4177442;28;20273;-72
2022/09/12 02:03:18;;;;;;;4.90;4.03;;;21.90;99.90;;;;;;4174671;28;20713;-73
2022/09/12 02:05:27;;;;;;;4.80;4.40;;;21.80;99.90;;;;;;4177134;28;20300;-72
2022/09/12 02:07:35;;;;;;;4.45;4.05;;;21.80;99.90;;;;;;4177044;28;20269;-73
2022/09/12 02:09:43;;;;;;;4.85;4.20;;;21.80;99.90;;;;;;4177238;28;20227;-72
2022/09/12 02:11:48;;;;;;;4.90;4.45;;;21.80;99.90;;;;;;4176538;28;20243;-72
2022/09/12 02:13:56;;;;;;;4.72;4.32;;;21.80;99.90;;;;;;4177427;28;20227;-72
2022/09/12 02:16:03;;;;;;;4.65;4.25;;;21.80;99.90;;;;;;4177634;28;20219;-72
2022/09/12 02:18:06;;;;;;;5.00;4.50;;;21.80;99.90;;;;;;4178487;28;20717;-72
2022/09/12 02:20:14;;;;;;;4.25;3.88;;;21.80;99.90;;;;;;4176239;28;20228;-72
2022/09/12 02:22:20;;;;;;;4.78;4.38;;;21.80;99.90;;;;;;4177953;28;20265;-73
2022/09/12 02:24:28;;;;;;;4.38;3.97;;;21.80;99.90;;;;;;4175635;28;21015;-72
2022/09/12 02:26:36;;;;;;;5.03;4.28;;;21.80;99.90;;;;;;4177216;28;20227;-73
2022/09/12 02:28:42;;;;;;;4.93;4.40;;;21.80;99.90;;;;;;4177310;28;20280;-72
2022/09/12 02:30:54;;;;;;;4.80;4.10;;;21.80;99.90;;;;;;4176743;28;20277;-72
2022/09/12 02:33:01;;;;;;;4.88;4.47;;;21.80;99.90;;;;;;4177029;28;20215;-72
2022/09/12 02:35:08;;;;;;;4.40;4.00;;;21.80;99.90;;;;;;4177166;28;20269;-72
2022/09/12 02:37:26;;;;;;;4.38;3.97;;;21.80;99.90;;;;;;4176209;28;20296;-72
2022/09/12 02:39:28;;;;;;;4.10;3.80;;;21.80;99.90;;;;;;4176635;28;20616;-72
2022/09/12 02:41:30;;;;;;;4.55;4.07;;;21.80;99.90;;;;;;4173745;28;20220;-72
2022/09/12 02:43:32;;;;;;;5.07;4.32;;;21.80;99.90;;;;;;4174863;28;20246;-72
2022/09/12 02:45:36;;;;;;;5.15;4.60;;;21.80;99.90;;;;;;4176690;28;20264;-72
2022/09/12 02:47:44;;;;;;;4.85;4.43;;;21.80;99.90;;;;;;4176895;28;20285;-72
2022/09/12 02:49:47;;;;;;;4.97;4.47;;;21.80;99.90;;;;;;4176618;28;20219;-72
2022/09/12 02:51:49;;;;;;;4.22;3.83;;;21.80;99.90;;;;;;4176811;28;20297;-72
2022/09/12 02:53:53;;;;;;;4.70;4.30;;;21.80;99.90;;;;;;4176014;28;20277;-73
2022/09/12 02:55:56;;;;;;;6.80;4.40;;;21.80;99.90;;;;;;4176849;28;20633;-73
2022/09/12 02:57:59;;;;;;;4.22;3.83;;;21.80;99.90;;;;;;4177375;28;20269;-72
2022/09/12 03:00:02;;;;;;;4.07;3.78;;;21.80;99.90;;;;;;4176908;28;20220;-72
2022/09/12 03:02:13;;;;;;;4.75;3.65;;;21.80;99.90;;;;;;4176330;28;20224;-73
2022/09/12 03:04:33;;;;;;;4.45;4.05;;;21.70;99.90;;;;;;4176887;28;21118;-72
2022/09/12 03:06:46;;;;;;;4.05;3.65;;;21.80;99.90;;;;;;4176528;28;20216;-72
2022/09/12 03:09:03;;;;;;;5.72;4.13;;;21.80;99.90;;;;;;4176912;28;20219;-73
2022/09/12 03:11:16;;;;;;;5.25;3.85;;;21.80;99.90;;;;;;4174429;28;20216;-72
2022/09/12 03:13:25;;;;;;;4.55;4.05;;;21.70;99.90;;;;;;4175275;28;20656;-72
2022/09/12 03:15:40;;;;;;;5.13;4.22;;;21.80;99.90;;;;;;4177127;28;20618;-72
2022/09/12 03:17:55;;;;;;;4.25;3.85;;;21.80;99.90;;;;;;4176755;28;20265;-72
2022/09/12 03:20:01;;;;;;;5.05;4.20;;;21.80;99.90;;;;;;4175529;28;20215;-72
2022/09/12 03:22:11;;;;;;;4.50;4.00;;;21.70;99.90;;;;;;4176019;28;20273;-72
2022/09/12 03:24:18;;;;;;;4.20;3.80;;;21.70;99.90;;;;;;4179974;28;20215;-72
2022/09/12 03:26:27;;;;;;;4.63;4.22;;;21.80;99.90;;;;;;4179810;28;20222;-72
2022/09/12 03:28:31;;;;;;;4.40;4.00;;;21.70;99.90;;;;;;4177786;28;20219;-72
2022/09/12 03:30:38;;;;;;;4.95;4.03;;;21.80;99.90;;;;;;4179578;28;20637;-72
2022/09/12 03:32:42;;;;;;;4.50;4.10;;;21.70;99.90;;;;;;4179449;28;20270;-72
2022/09/12 03:34:44;;;;;;;4.63;4.20;;;21.70;99.90;;;;;;4179884;28;20223;-72
2022/09/12 03:36:47;;;;;;;5.63;4.53;;;21.70;99.90;;;;;;4179777;28;20269;-72
2022/09/12 03:38:49;;;;;;;4.20;3.80;;;21.70;99.90;;;;;;4179586;28;20223;-72
2022/09/12 03:40:53;;;;;;;4.60;4.03;;;21.70;99.90;;;;;;4179464;28;20211;-72
2022/09/12 03:42:55;;;;;;;5.03;4.32;;;21.70;99.90;;;;;;4179532;28;20321;-72
2022/09/12 03:44:57;;;;;;;4.78;4.13;;;21.70;99.90;;;;;;4175863;28;20217;-73
2022/09/12 03:47:00;;;;;;;4.32;3.95;;;21.80;99.90;;;;;;4179510;28;20269;-72
2022/09/12 03:49:02;;;;;;;4.53;4.13;;;21.70;99.90;;;;;;4179584;28;20223;-72
2022/09/12 03:51:07;;;;;;;4.68;4.22;;;21.70;99.90;;;;;;4179224;28;20227;-72
2022/09/12 03:53:09;;;;;;;4.13;3.75;;;21.70;99.90;;;;;;4179054;28;20239;-72
2022/09/12 03:55:11;;;;;;;5.22;4.25;;;21.70;99.90;;;;;;4179539;28;20220;-72
2022/09/12 03:57:15;;;;;;;4.90;4.15;;;21.70;99.90;;;;;;4179552;28;20620;-72
2022/09/12 03:59:18;;;;;;;4.60;4.15;;;21.70;99.90;;;;;;4178903;28;20277;-73
2022/09/12 04:01:20;;;;;;;4.50;4.05;;;21.70;99.90;;;;;;4179336;28;20278;-72
2022/09/12 04:03:23;;;;;;;4.70;4.15;;;21.70;99.90;;;;;;4167048;28;20209;-73
2022/09/12 04:05:26;;;;;;;4.10;3.75;;;21.70;99.90;;;;;;4174288;28;20308;-72
2022/09/12 04:07:29;;;;;;;5.13;4.28;;;21.70;99.90;;;;;;4178834;28;20219;-72
2022/09/12 04:09:31;;;;;;;4.38;3.97;;;21.70;99.90;;;;;;4179153;28;21062;-72
2022/09/12 04:11:34;;;;;;;6.18;4.20;;;21.70;99.90;;;;;;4178845;28;20227;-72
2022/09/12 04:13:39;;;;;;;4.82;4.43;;;21.70;99.90;;;;;;4178821;28;20235;-72
2022/09/12 04:15:41;;;;;;;4.38;3.92;;;21.70;99.90;;;;;;4179356;28;20220;-72
2022/09/12 04:17:44;;;;;;;4.63;4.00;;;21.70;99.90;;;;;;4179088;28;20635;-72
2022/09/12 04:19:46;;;;;;;4.90;4.40;;;21.70;99.90;;;;;;4176543;28;20224;-72
2022/09/12 04:21:48;;;;;;;4.75;4.20;;;21.70;99.90;;;;;;4179075;28;20223;-72
2022/09/12 04:23:51;;;;;;;4.57;3.75;;;21.70;99.90;;;;;;4179149;28;20270;-72
2022/09/12 04:25:54;;;;;;;4.05;3.72;;;21.70;99.90;;;;;;4178800;28;20216;-72
2022/09/12 04:27:56;;;;;;;4.38;3.97;;;21.70;99.90;;;;;;4179047;28;20258;-72
2022/09/12 04:30:01;;;;;;;4.93;4.43;;;21.70;99.90;;;;;;4179091;28;20273;-72
2022/09/12 04:32:03;;;;;;;4.95;4.45;;;21.70;99.90;;;;;;4178680;28;20223;-72
2022/09/12 04:34:05;;;;;;;4.28;3.88;;;21.70;99.90;;;;;;4177709;28;20254;-73
2022/09/12 04:36:09;;;;;;;4.68;4.28;;;21.70;99.90;;;;;;4177731;28;20227;-72
2022/09/12 04:38:12;;;;;;;4.25;3.95;;;21.70;99.90;;;;;;4178607;28;20269;-72
2022/09/12 04:40:14;;;;;;;4.97;4.35;;;21.70;99.90;;;;;;4178467;28;20216;-72
2022/09/12 04:42:17;;;;;;;3.90;3.55;;;21.70;99.90;;;;;;4178715;28;20223;-73
2022/09/12 04:44:19;;;;;;;4.50;4.10;;;21.70;99.90;;;;;;4178043;28;20297;-72
2022/09/12 04:46:23;;;;;;;5.95;4.20;;;21.70;99.90;;;;;;4178840;28;20211;-73
2022/09/12 04:48:25;;;;;;;6.18;4.53;;;21.70;99.90;;;;;;4178198;28;20265;-72
2022/09/12 04:50:28;;;;;;;5.38;4.43;;;21.70;99.90;;;;;;4177826;28;20273;-72
2022/09/12 04:52:30;;;;;;;4.65;4.20;;;21.70;99.90;;;;;;4177284;28;20285;-72
2022/09/12 04:54:33;;;;;;;4.57;4.13;;;21.70;99.90;;;;;;4178214;28;20289;-72
2022/09/12 04:56:38;;;;;;;4.35;3.92;;;21.70;99.90;;;;;;4178348;28;20220;-72
2022/09/12 04:58:41;;;;;;;4.38;3.85;;;21.70;99.90;;;;;;4178522;28;20266;-73
2022/09/12 05:00:43;;;;;;;4.22;3.83;;;21.70;99.90;;;;;;4178421;28;20219;-72
2022/09/12 05:02:47;;;;;;;4.15;3.75;;;21.70;99.90;;;;;;4178317;28;20281;-73
2022/09/12 05:04:49;;;;;;;4.28;3.88;;;21.70;99.90;;;;;;4169182;28;20252;-72
2022/09/12 05:06:51;;;;;;;4.25;3.85;;;21.70;99.90;;;;;;4145320;28;20221;-72
2022/09/12 05:08:54;;;;;;;4.80;4.00;;;21.70;99.90;;;;;;4145195;28;20997;-72
2022/09/12 05:11:02;;;;;;;4.15;3.75;;;21.70;99.90;;;;;;4144645;28;20309;-73
2022/09/12 05:13:04;;;;;;;4.20;3.80;;;21.70;99.90;;;;;;4151234;28;20308;-73
2022/09/12 05:15:08;;;;;;;4.60;4.03;;;21.60;99.90;;;;;;4145320;28;20272;-72
2022/09/12 05:17:10;;;;;;;4.68;4.28;;;21.60;99.90;;;;;;4145256;28;20229;-72
2022/09/12 05:19:14;;;;;;;4.78;3.80;;;21.60;99.90;;;;;;4155004;28;20275;-72
2022/09/12 05:21:18;;;;;;;4.53;4.10;;;21.60;99.90;;;;;;4146803;28;20225;-73
2022/09/12 05:23:21;;;;;;;3.75;3.40;;;21.70;99.90;;;;;;4145524;28;20661;-72
2022/09/12 05:25:23;;;;;;;4.25;3.75;;;21.70;99.90;;;;;;4145072;28;20612;-72
2022/09/12 05:27:25;;;;;;;4.25;3.80;;;21.60;99.90;;;;;;4142309;28;20275;-72
2022/09/12 05:29:28;;;;;;;4.40;3.92;;;21.60;99.90;;;;;;4145367;28;20858;-72
2022/09/12 05:31:30;;;;;;;4.07;3.67;;;21.70;99.90;;;;;;4146535;28;20275;-73
2022/09/12 05:33:34;;;;;;;4.13;3.70;;;21.60;99.90;;;;;;4149763;28;20300;-72
2022/09/12 05:35:37;;;;;;;4.43;4.00;;;21.70;99.90;;;;;;4144887;28;20288;-72
2022/09/12 05:37:40;;;;;;;4.13;3.72;;;21.60;99.90;;;;;;4145020;28;20240;-72
2022/09/12 05:39:42;;;;;;;4.03;3.58;;;21.60;99.90;;;;;;4146436;28;20225;-72
2022/09/12 05:41:44;;;;;;;4.30;3.90;;;21.70;99.90;;;;;;4158254;28;20224;-72
2022/09/12 05:43:51;;;;;;;4.65;3.83;;;21.60;99.90;;;;;;4144845;28;20265;-72
2022/09/12 05:45:59;;;;;;;5.63;4.10;;;21.60;99.90;;;;;;4152186;28;20255;-72
2022/09/12 05:48:02;;;;;;;3.97;3.58;;;21.60;99.90;;;;;;4147686;28;20267;-72
2022/09/12 05:50:09;;;;;;;4.20;3.80;;;21.70;99.90;;;;;;4144474;28;20692;-72
2022/09/12 05:52:13;;;;;;;4.10;3.80;;;21.70;99.90;;;;;;4144423;28;20269;-72
2022/09/12 05:54:18;;;;;;;4.47;4.00;;;21.60;99.90;;;;;;4144777;28;20237;-72
2022/09/12 05:56:22;;;;;;;6.95;4.00;;;21.60;99.90;;;;;;4144619;28;20732;-72
2022/09/12 05:58:25;;;;;;;4.38;3.97;;;21.60;99.90;;;;;;4144722;28;20631;-72
2022/09/12 06:00:27;;;;;;;3.92;3.50;;;21.60;99.90;;;;;;4144457;28;20681;-72
2022/09/12 06:02:29;;;;;;;4.00;3.60;;;21.70;99.90;;;;;;4151797;28;20266;-72
2022/09/12 06:04:31;;;;;;;4.90;4.15;;;21.60;99.90;;;;;;4147648;28;20241;-72
2022/09/12 06:06:40;;;;;;;4.25;3.80;;;21.70;99.90;;;;;;4145123;28;20629;-72
2022/09/12 06:08:45;;;;;;;4.57;4.03;;;21.60;99.90;;;;;;4147291;28;20213;-73
2022/09/12 06:10:48;;;;;;;4.38;3.97;;;21.60;99.90;;;;;;4143284;28;20225;-72
2022/09/12 06:12:50;;;;;;;4.45;4.00;;;21.60;99.90;;;;;;4144402;28;20225;-72
2022/09/12 06:14:52;;;;;;;4.43;4.05;;;21.60;99.90;;;;;;4144664;28;20582;-72
2022/09/12 06:16:55;;;;;;;4.75;3.70;;;21.60;99.90;;;;;;4144486;28;20563;-72
2022/09/12 06:18:59;;;;;;;5.57;3.83;;;21.60;99.90;;;;;;4143287;28;20747;-72
2022/09/12 06:21:05;;;;;;;4.22;3.83;;;21.60;99.90;;;;;;4142774;28;20283;-72
2022/09/12 06:23:07;;;;;;;4.72;3.85;;;21.60;99.90;;;;;;4144070;28;20225;-72
2022/09/12 06:25:11;;;;;;;4.72;3.88;;;21.60;99.90;;;;;;4144624;28;20630;-72
2022/09/12 06:27:14;;;;;;;3.95;3.55;;;21.70;99.90;;;;;;4144522;28;20225;-72
2022/09/12 06:29:17;;;;;;;4.93;3.83;;;21.60;99.90;;;;;;4144157;28;20263;-72
2022/09/12 06:31:23;;;;;;;4.53;4.13;;;21.60;99.90;;;;;;4144787;28;20724;-73
2022/09/12 06:33:26;;;;;;;4.88;4.07;;;21.60;99.90;;;;;;4149077;28;20241;-73
2022/09/12 06:35:28;;;;;;;4.32;3.78;;;21.60;99.90;;;;;;4145769;28;20232;-73
2022/09/12 06:37:31;;;;;;;4.15;3.83;;;21.60;99.90;;;;;;4144199;28;20224;-72
2022/09/12 06:39:35;;;;;;;4.50;3.92;;;21.60;99.90;;;;;;4144217;28;20225;-72
2022/09/12 06:41:39;;;;;;;5.82;4.00;;;21.60;99.90;;;;;;4145423;28;20228;-72
2022/09/12 06:43:42;;;;;;;4.72;4.13;;;21.60;99.90;;;;;;4144225;28;20238;-72
2022/09/12 06:45:49;;;;;;;4.65;3.83;;;21.60;99.90;;;;;;4143801;28;20267;-72
2022/09/12 06:47:51;;;;;;;4.53;3.83;;;21.60;99.90;;;;;;4141547;28;20221;-72
2022/09/12 06:49:53;;;;;;;5.72;4.00;;;21.60;99.90;;;;;;4152858;28;20212;-72
2022/09/12 06:51:56;;;;;;;5.25;3.75;;;21.60;99.90;;;;;;4137744;28;20275;-73
2022/09/12 06:53:58;;;;;;;5.38;4.05;;;21.70;99.90;;;;;;4139453;28;20299;-73
2022/09/12 06:56:03;;;;;;;9.23;4.80;;;21.60;99.90;;;;;;4138660;28;20265;-73
2022/09/12 06:58:07;;;;;;;6.82;3.90;;;21.60;99.90;;;;;;4143427;28;20275;-73
2022/09/12 07:00:11;;;;;;;9.60;4.30;;;21.60;99.90;;;;;;4144362;28;20216;-73
2022/09/12 07:02:16;;;;;;;11.82;4.90;;;21.50;99.90;;;;;;4141597;28;20272;-72
2022/09/12 07:04:18;;;;;;;8.35;5.50;;;21.50;99.90;;;;;;4142908;28;20291;-72
2022/09/12 07:06:23;;;;;;;8.00;6.40;;;21.40;99.90;;;;;;4139750;28;20329;-72
2022/09/12 07:08:25;;;;;;;9.57;6.85;;;21.30;99.90;;;;;;4143660;28;20939;-71
2022/09/12 07:10:28;;;;;;;20.75;7.70;;;21.30;99.90;;;;;;4142067;28;20459;-72
2022/09/12 07:12:30;;;;;;;9.27;6.93;;;21.20;99.90;;;;;;4140252;28;20221;-72
2022/09/12 07:14:34;;;;;;;11.00;6.82;;;21.10;99.90;;;;;;4141191;28;20237;-72
2022/09/12 07:16:36;;;;;;;13.88;7.72;;;21.10;99.90;;;;;;4145605;28;20633;-71
2022/09/12 07:18:39;;;;;;;11.68;6.78;;;21.10;99.90;;;;;;4145416;28;20682;-72
2022/09/12 07:20:42;;;;;;;12.13;6.65;;;21.10;99.90;;;;;;4143418;28;20294;-72
2022/09/12 07:22:44;;;;;;;10.98;6.90;;;21.10;99.90;;;;;;4142359;28;20260;-72
2022/09/12 07:24:46;;;;;;;10.55;6.53;;;21.10;99.90;;;;;;4142877;28;20241;-72
2022/09/12 07:26:48;;;;;;;9.30;6.30;;;21.10;99.90;;;;;;4141022;28;20287;-72
2022/09/12 07:28:52;;;;;;;7.78;6.38;;;21.10;99.90;;;;;;4143690;28;20213;-72
2022/09/12 07:30:56;;;;;;;10.68;6.43;;;21.10;99.90;;;;;;4142362;28;20603;-71
2022/09/12 07:32:59;;;;;;;7.60;5.40;;;21.10;99.90;;;;;;4142572;28;20302;-72
2022/09/12 07:35:01;;;;;;;9.68;5.75;;;21.10;99.90;;;;;;4142672;28;20636;-72
2022/09/12 07:37:03;;;;;;;7.28;5.60;;;21.10;99.90;;;;;;4143203;28;20221;-71
2022/09/12 07:39:06;;;;;;;7.63;5.45;;;21.10;99.90;;;;;;4141568;28;20217;-72
2022/09/12 07:41:12;;;;;;;8.43;5.65;;;21.20;99.90;;;;;;4142767;28;20217;-72
2022/09/12 07:43:14;;;;;;;7.85;5.32;;;21.10;99.90;;;;;;4139306;28;20218;-72
2022/09/12 07:45:17;;;;;;;10.38;5.15;;;21.10;99.90;;;;;;4141233;28;20209;-72
2022/09/12 07:47:20;;;;;;;6.15;5.07;;;21.10;99.90;;;;;;4146507;28;20279;-72
2022/09/12 07:49:22;;;;;;;9.07;5.00;;;21.10;99.90;;;;;;4138315;28;20210;-72
2022/09/12 07:51:26;;;;;;;7.20;5.10;;;21.20;99.90;;;;;;4144792;28;20658;-72
2022/09/12 07:53:32;;;;;;;6.47;4.50;;;21.20;99.90;;;;;;4145272;28;20650;-72
2022/09/12 07:55:35;;;;;;;6.72;3.90;;;21.20;99.90;;;;;;4141820;28;20233;-72
2022/09/12 07:57:37;;;;;;;9.25;4.35;;;21.40;99.90;;;;;;4140748;28;20217;-74
2022/09/12 07:59:41;;;;;;;8.52;4.10;;;21.30;99.90;;;;;;4140634;28;20221;-73
2022/09/12 08:01:43;;;;;;;6.57;4.60;;;21.30;99.90;;;;;;4143458;28;20271;-71
2022/09/12 08:03:48;;;;;;;6.60;4.35;;;21.50;99.90;;;;;;4146499;28;20213;-72
2022/09/12 08:05:50;;;;;;;4.80;4.22;;;21.50;99.90;;;;;;4145349;28;20236;-72
2022/09/12 08:07:53;;;;;;;6.68;3.60;;;21.50;99.90;;;;;;4159487;28;20220;-73
2022/09/12 08:09:55;;;;;;;5.18;4.00;;;21.60;99.90;;;;;;4170987;28;20273;-71
2022/09/12 08:11:57;;;;;;;6.05;3.85;;;21.60;99.90;;;;;;4159494;28;20213;-71
2022/09/12 08:14:01;;;;;;;6.18;3.83;;;21.50;99.90;;;;;;4156838;28;20294;-72
2022/09/12 08:16:08;;;;;;;8.80;3.63;;;21.60;99.90;;;;;;4161316;28;20269;-71
2022/09/12 08:18:10;;;;;;;6.47;4.10;;;21.60;99.90;;;;;;4160744;28;20224;-71
2022/09/12 08:20:14;;;;;;;6.03;3.42;;;21.70;99.90;;;;;;4161092;28;20665;-71
2022/09/12 08:22:20;;;;;;;5.93;3.72;;;21.60;99.90;;;;;;4162902;28;20274;-71
2022/09/12 08:24:23;;;;;;;6.97;3.63;;;21.70;99.90;;;;;;4154313;28;20656;-72
2022/09/12 08:26:26;;;;;;;8.32;4.10;;;21.80;99.90;;;;;;4149292;28;20274;-72
2022/09/12 08:28:28;;;;;;;7.03;3.63;;;21.80;99.90;;;;;;4158510;28;20221;-71
2022/09/12 08:30:31;;;;;;;4.50;3.58;;;21.80;99.90;;;;;;4161640;28;20220;-73
2022/09/12 08:32:35;;;;;;;4.20;3.10;;;21.70;99.90;;;;;;4158665;28;20270;-71
2022/09/12 08:34:37;;;;;;;6.78;3.45;;;21.70;99.90;;;;;;4154910;28;20283;-72
2022/09/12 08:36:40;;;;;;;10.70;3.70;;;21.70;99.90;;;;;;4162960;28;20623;-75
2022/09/12 08:38:45;;;;;;;8.45;3.30;;;21.70;99.90;;;;;;4156113;28;20271;-72
2022/09/12 08:40:53;;;;;;;6.20;3.42;;;21.80;99.90;;;;;;4166038;28;20266;-73
2022/09/12 08:43:07;;;;;;;6.88;3.22;;;21.80;99.90;;;;;;4165911;28;20653;-71
2022/09/12 08:45:18;;;;;;;11.13;3.15;;;21.80;99.90;;;;;;4159408;28;20255;-71
2022/09/12 08:47:26;;;;;;;8.55;3.70;;;21.90;99.90;;;;;;4171196;28;20242;-71
2022/09/12 08:49:32;;;;;;;4.72;3.33;;;22.00;99.90;;;;;;4161885;28;20654;-71
2022/09/12 08:51:35;;;;;;;4.30;3.50;;;22.00;99.90;;;;;;4156180;28;20247;-71
2022/09/12 08:53:40;;;;;;;5.60;3.08;;;22.10;99.90;;;;;;4152114;28;20254;-71
2022/09/12 08:55:45;;;;;;;6.82;3.20;;;22.10;99.90;;;;;;4156308;28;20235;-75
2022/09/12 08:57:47;;;;;;;7.72;3.50;;;22.10;99.90;;;;;;4158071;28;20536;-73
2022/09/12 08:59:50;;;;;;;4.88;3.10;;;22.10;99.90;;;;;;4159413;28;20213;-76
2022/09/12 09:01:57;;;;;;;8.65;3.08;;;22.20;99.90;;;;;;4161688;28;20212;-75
2022/09/12 09:04:19;;;;;;;5.50;2.80;;;22.20;99.90;;;;;;4158493;28;20609;-76
2022/09/12 09:06:35;;;;;;;5.93;3.17;;;22.20;99.90;;;;;;4157218;28;20240;-75
2022/09/12 09:08:49;;;;;;;4.80;2.90;;;22.30;99.90;;;;;;4155719;28;20224;-75
2022/09/12 09:10:57;;;;;;;5.00;2.83;;;22.30;99.90;;;;;;4157665;28;20249;-75
2022/09/12 09:13:06;;;;;;;6.60;3.30;;;22.30;99.90;;;;;;4152966;28;20216;-75
2022/09/12 09:15:44;;;;;;;3.35;2.80;;;22.30;99.90;;;;;;4154644;28;20282;-72
2022/09/12 09:17:51;;;;;;;6.53;2.70;;;22.40;99.90;;;;;;4149906;28;20216;-75
2022/09/12 09:19:59;;;;;;;4.57;2.90;;;22.40;99.90;;;;;;4156666;28;20274;-74
2022/09/12 09:22:05;;;;;;;4.70;2.83;;;22.40;99.90;;;;;;4158674;28;20561;-74
2022/09/12 09:24:12;;;;;;;3.70;2.83;;;22.40;99.90;;;;;;4157162;28;20259;-75
2022/09/12 09:26:25;;;;;;;6.57;2.83;;;22.40;99.90;;;;;;4154723;28;20235;-74
2022/09/12 09:28:36;;;;;;;5.10;2.90;;;22.40;99.90;;;;;;4155362;28;20275;-75
2022/09/12 09:30:46;;;;;;;5.38;3.05;;;22.50;99.90;;;;;;4158268;28;20263;-73
2022/09/12 09:32:52;;;;;;;8.07;3.22;;;22.40;99.90;;;;;;4157514;28;20229;-72
2022/09/12 09:34:55;;;;;;;6.60;3.17;;;22.50;99.90;;;;;;4158405;28;20259;-74
2022/09/12 09:37:04;;;;;;;8.68;3.28;;;22.50;99.90;;;;;;4151348;28;20260;-75
2022/09/12 09:39:20;;;;;;;4.78;2.67;;;22.50;99.90;;;;;;4155576;28;20213;-75
2022/09/12 09:41:38;;;;;;;5.45;3.50;;;22.50;99.90;;;;;;4150408;28;20212;-75
2022/09/12 09:43:40;;;;;;;8.15;2.88;;;22.40;99.90;;;;;;4151892;28;23314;-75
2022/09/12 09:45:43;;;;;;;7.35;3.55;;;22.50;99.90;;;;;;4151363;28;20217;-77
2022/09/12 09:47:48;;;;;;;12.38;3.08;;;22.50;99.90;;;;;;4157622;28;20275;-73
2022/09/12 09:49:51;;;;;;;5.65;3.17;;;22.50;99.90;;;;;;4152828;28;20220;-73
2022/09/12 09:51:53;;;;;;;6.28;2.80;;;22.50;99.90;;;;;;4159825;28;20272;-74
2022/09/12 09:53:59;;;;;;;4.90;2.90;;;22.50;99.90;;;;;;4152358;28;20669;-73
2022/09/12 09:56:08;;;;;;;12.40;3.47;;;22.50;99.90;;;;;;4147843;28;20319;-74
2022/09/12 09:58:11;;;;;;;7.32;3.22;;;22.40;99.90;;;;;;4158055;28;20947;-76
2022/09/12 10:00:30;;;;;;;6.28;3.20;;;22.40;99.90;;;;;;4148207;28;20228;-77
2022/09/12 10:02:32;;;;;;;9.23;2.95;;;22.50;99.90;;;;;;4152581;28;20212;-76
2022/09/12 10:04:39;;;;;;;7.40;3.30;;;22.50;99.90;;;;;;4148990;28;20270;-76
2022/09/12 10:06:41;;;;;;;5.45;2.90;;;22.50;99.90;;;;;;4140814;28;20213;-77
2022/09/12 10:08:45;;;;;;;5.63;2.92;;;22.50;99.90;;;;;;4142341;28;20259;-76
2022/09/12 10:10:54;;;;;;;5.05;2.92;;;22.50;99.90;;;;;;4138482;28;20267;-77
2022/09/12 10:13:23;;;;;;;5.32;2.78;;;22.60;99.90;;;;;;4138181;28;20241;-76
2022/09/12 10:15:26;;;;;;;10.43;3.15;;;22.60;99.90;;;;;;4141654;28;20225;-78
2022/09/12 10:17:31;;;;;;;5.53;2.92;;;22.60;99.90;;;;;;4136082;28;20217;-78
2022/09/12 10:19:39;;;;;;;4.18;2.70;;;22.60;99.90;;;;;;4142193;28;20222;-78
2022/09/12 10:21:47;;;;;;;6.07;2.80;;;22.60;99.90;;;;;;4141275;28;20221;-79
2022/09/12 10:23:59;;;;;;;4.85;2.42;;;22.60;99.90;;;;;;4145305;28;20259;-78
2022/09/12 10:26:05;;;;;;;5.10;2.92;;;22.60;99.90;;;;;;4135892;28;20217;-79
2022/09/12 10:28:25;;;;;;;4.65;2.58;;;22.60;99.90;;;;;;4144171;28;20224;-79
2022/09/12 10:30:28;;;;;;;3.97;2.55;;;22.60;99.90;;;;;;4142162;28;20260;-79
2022/09/12 10:32:36;;;;;;;3.88;2.60;;;22.60;99.90;;;;;;4145913;28;20287;-79
2022/09/12 10:34:43;;;;;;;6.07;3.03;;;22.60;99.90;;;;;;4141272;28;20636;-79
2022/09/12 10:36:46;;;;;;;4.72;2.58;;;22.60;99.90;;;;;;4149710;28;20341;-79
2022/09/12 10:38:53;;;;;;;5.78;2.83;;;22.60;99.90;;;;;;4144832;28;20217;-79
2022/09/12 10:40:59;;;;;;;5.13;3.03;;;22.60;99.90;;;;;;4141678;28;20212;-79
2022/09/12 10:43:02;;;;;;;5.72;2.55;;;22.60;99.90;;;;;;4138187;28;20263;-79
2022/09/12 10:45:19;;;;;;;4.85;2.75;;;22.60;99.90;;;;;;4137083;28;20213;-80
2022/09/12 10:47:23;;;;;;;4.35;2.85;;;22.60;99.90;;;;;;4131891;28;20269;-79
2022/09/12 10:49:28;;;;;;;4.32;2.85;;;22.60;99.90;;;;;;4140081;28;20217;-79
2022/09/12 10:51:31;;;;;;;2.92;2.55;;;22.60;99.90;;;;;;4138893;28;20217;-79